Yozetty's sites:

title views votes rating creation
?Shooting Deer 2,950 9 (4.22)  2009-10-13
?After Obama Saves the World... 83,491 817 (4.61)  2009-01-07
?Saturday Mornings with Sartre 1,605 8 (4.25)  2009-01-07
?John McCain Needs Publicity 26,304 484 (4.34)  2008-10-24
?When George Lucas Dreams... 27,042 559 (4.42)  2008-04-27
?The Democratic Destruction 10,375 357 (4.16)  2008-03-29
?Obamanable Snowman - 2008 5,435 141 (3.82)  2008-03-28
?Not For Public Consumption 2,340 44 (1.64)  2008-03-09
?Hillary Clinton gets Easy Questions 34,747 872 (4.30)  2007-12-03
?Arnold's Quaid Game 26,426 550 (4.11)  2007-09-28
?The March of Parisect 3,471 85 (3.26)  2007-09-25
?Alan Grant Has No Class 13,160 248 (3.95)  2007-09-24
?Film Summary - Hitchcock 's North by Nort... 5,079 103 (3.74)  2007-09-24
?(nsfw) Tom Cruise's Cravings 9,417 380 (4.20)  2007-07-26
?That Jurassic Park Adventure 30,480 816 (4.49)  2007-06-16
?28 Stones Later 994 14 (3.71)  2007-06-10
?Indiana Jones' Next Adventure 18,751 444 (4.26)  2007-06-02
?Mr. Oliver Twist Goes to Washington 907 14 (3.79)  2007-05-20
?Doc Ock Loves the 80's 2,567 75 (3.87)  2007-05-15
?Democratic Temptations 1,237 56 (3.75)  2007-04-21
?Chris Rock: Upvoter 7,003 305 (4.10)  2007-04-19
?(nsfw) Dr. Mario's Diagnosis 3,801 133 (3.87)  2007-04-04
?Casting Gandalf 942 8 (3.38)  2007-03-31
?Indiana's Eye-M 2,229 83 (3.92)  2007-03-31
?Sloppy Smorgasbord 5,975 302 (4.02)  2007-03-24
?Jerraptor 2,487 37 (3.78)  2007-03-13
?Natural Election 581 7 (3.57)  2007-03-11
?(nsfw) Sex in the East 8,205 296 (3.93)  2007-03-04
?Metal Gear Idol 32,795 654 (4.33)  2007-03-02
?The Face Comes 836 21 (3.57)  2007-02-24
?The Fountain of Youth is... 11,730 405 (3.97)  2007-02-19
?Adam Carolla Vs. Scientology 13,706 304 (4.12)  2007-02-11
?Rosie's New Manager 6,603 345 (4.39)  2007-02-04
?Duel of Crates 1,154 20 (3.80)  2007-02-03
?The Scientologist's Afterlife 8,795 310 (4.00)  2007-01-27
?Love 4 Turtle Dove 1,499 28 (3.75)  2007-01-27
?It's Lord Myotismon!!! 722 12 (2.83)  2007-01-21
?George Washington's Sexual Revolution 2,511 20 (3.75)  2007-01-10
?Reminder: Wear a Condom 1,112 12 (3.33)  2007-01-08
?I'm Mr. Vein 603 16 (3.44)  2007-01-04
?Dances with Windmills 1,842 27 (4.19)  2006-12-27
?Jocker Jams 866 11 (2.91)  2006-12-24
?Joker Gets Spooky 3,316 20 (3.75)  2006-12-24
?Exposing Age of Mythology 962 13 (3.31)  2006-12-15
?My Girl Solid 3 945 9 (3.44)  2006-12-08
?Skinner's Fiery Deed 6,040 316 (4.02)  2006-12-03
?Yodemo 319 7 (3.71)  2006-11-29
?Fast Food's Circle of Strife 24,075 979 (4.59)  2006-11-23
?Danzig with Wolves 2,375 18 (3.39)  2006-11-22
?Al Gore's "An Inconvenient Truth&quot... 853 12 (3.33)  2006-11-21
?Kamehameha Caterpillar 952 10 (3.20)  2006-11-15
?Velocirackbar Kitchen Infestation 2,607 71 (3.89)  2006-11-08
?Abandoned Bedroom 2,532 40 (4.25)  2006-11-05
?The Island of Iraq 1,302 10 (3.60)  2006-10-31
?Roll Call: Chosen One-01 8,731 498 (4.49)  2006-10-27
?Jurassic Park Gone Kinky - Dry Anal Rape 19,167 86 (4.27)  2006-10-17
?Bob Dole's Inappropriate Erection # 1 1,892 24 (3.63)  2006-10-15
?Homer Expresses Love 23,084 682 (4.24)  2006-10-14
?Is Ned Ryerson Right? 2,947 26 (4.15)  2006-10-14
?The Beauty of Clerks 1,216 17 (3.82)  2006-09-19
?Lincoln Supreme Final Form 2,240 14 (4.07)  2006-09-19
?Gamespot's Greg Kasavin Revealed 540 10 (2.10)  2006-09-19
?Why Brock Keeps His Eyes Closed 984 14 (3.64)  2006-09-12
?Usual Suspects Buy A Car 817 12 (3.67)  2006-08-25
?Link Masters Guitar Hero 21,470 405 (3.99)  2006-08-24
?The Muthaf*ckin Dawn of a New Muthaf*ckin Era 773 13 (3.85)  2006-08-20
?testsetest 1,931 22 (3.14)  2006-08-20
?Link Receives Personal Advice... 723 13 (3.77)  2006-07-23
?This Week on Hack... 812 10 (3.50)  2006-07-23
?What is Tim Allen... 849 11 (2.55)  2006-07-21
?Look Here for the Apartment 410 8 (3.13)  2006-06-20
?The Pope Converts 3,454 22 (3.82)  2006-06-02
?Hindu Gamer Suicide 2,172 26 (1.88)  2006-06-02
?Darth Vader has gone crazy 1,351 60 (2.65)  2006-05-24
?R.I.P. AFI - decemberunderground 1,931 21 (2.86)  2006-05-23
?SlopTit Enters... 563 16 (3.13)  2006-05-01
?Shawshank Gets a New Inmate 2,786 507 (3.57)  2006-05-01
?What'll I Do??? 689 8 (2.88)  2006-02-22
?Brian Peppers Spray 1,226 19 (3.53)  2006-02-21
?World of Warcraft = Awesome Incredible! 7,659 14 (2.86)  2006-02-19
?Dick Cheney Shooting - The Way it Really Happen... 4,582 35 (3.77)  2006-02-17
?Peppers Ann 846 11 (3.55)  2006-02-05
?Brian Peppers Next Life 835 12 (2.83)  2006-02-05
?The Brian Peppers Genetic Tree 1,032 17 (2.24)  2006-02-04
?Brian Peppers Under the Sea 743 12 (3.17)  2006-02-03
?Brian Peppers is Jeepers Creepers 858 12 (2.67)  2006-02-03
?Bright Eyes Yugi-Oh, Conor Oberst's tr... 2,562 17 (3.18)  2006-01-28
?Homer Simpson Ponders the Mona Lisa - Braces 8,100 43 (4.07)  2006-01-26
?Fabio Goose Disaster 11,726 15 (3.60)  2006-01-12
?South Park Ski Instructor 3,147 20 (3.90)  2006-01-09
?The Vikings Will Go Sailing No More - Culpepper Ti... 2,889 17 (3.88)  2006-01-09
?Office Space - Michael Bolton 3,410 17 (3.35)  2006-01-09
?Half Life Enters the World of Warcraft 5,895 12 (2.33)  2006-01-09
?Half Life Gets A Lesson From Teacher 3,453 20 (3.65)  2006-01-09